createdAt,value
2022-12-03T00:00:29.677Z,3.45
2022-12-03T00:01:01.911Z,3.53
2022-12-03T00:01:33.735Z,3.57
2022-12-03T00:02:05.650Z,3.56
2022-12-03T00:02:37.674Z,3.52
2022-12-03T00:03:10.000Z,3.57
2022-12-03T00:03:42.265Z,3.55
2022-12-03T00:04:14.322Z,3.54
2022-12-03T00:04:46.192Z,3.55
2022-12-03T00:05:18.094Z,3.64
2022-12-03T00:05:49.963Z,3.61
2022-12-03T00:06:22.211Z,3.63
2022-12-03T00:06:54.091Z,3.49
2022-12-03T00:07:26.009Z,3.32
2022-12-03T00:07:58.050Z,3.33
2022-12-03T00:08:29.988Z,3.36
2022-12-03T00:09:01.914Z,3.38
2022-12-03T00:09:33.785Z,3.37
2022-12-03T00:10:06.791Z,3.46
2022-12-03T00:10:38.655Z,3.43
2022-12-03T00:11:10.527Z,3.38
2022-12-03T00:11:42.679Z,3.37
2022-12-03T00:12:14.556Z,3.43
2022-12-03T00:12:46.506Z,3.41
2022-12-03T00:13:18.373Z,3.33
2022-12-03T00:13:50.232Z,3.45
2022-12-03T00:14:22.153Z,3.51
2022-12-03T00:14:54.823Z,3.54
2022-12-03T00:15:26.987Z,3.51
2022-12-03T00:15:58.897Z,3.50
2022-12-03T00:16:30.920Z,3.51
2022-12-03T00:17:03.145Z,3.51
2022-12-03T00:17:35.059Z,3.60
2022-12-03T00:18:06.923Z,3.58
2022-12-03T00:18:38.781Z,3.59
2022-12-03T00:19:10.659Z,3.56
2022-12-03T00:19:42.496Z,3.38
2022-12-03T00:20:23.246Z,3.31
2022-12-03T00:20:54.975Z,3.30
2022-12-03T00:21:26.935Z,3.34
2022-12-03T00:21:58.804Z,3.33
2022-12-03T00:22:31.014Z,3.35
2022-12-03T00:23:02.860Z,3.20
2022-12-03T00:23:38.603Z,3.16
2022-12-03T00:24:13.767Z,3.16
2022-12-03T00:24:45.757Z,3.19
2022-12-03T00:25:17.821Z,3.21
2022-12-03T00:25:49.689Z,3.20
2022-12-03T00:26:21.569Z,3.29
2022-12-03T00:26:53.607Z,3.20
2022-12-03T00:27:25.462Z,3.22
2022-12-03T00:27:57.606Z,3.10
2022-12-03T00:28:29.487Z,3.15
2022-12-03T00:29:01.358Z,3.14
2022-12-03T00:29:33.265Z,3.23
2022-12-03T00:30:06.583Z,3.24
2022-12-03T00:30:38.479Z,3.32
2022-12-03T00:31:10.371Z,3.31
2022-12-03T00:31:43.284Z,3.26
2022-12-03T00:32:15.185Z,3.25
2022-12-03T00:32:47.043Z,3.19
2022-12-03T00:33:19.204Z,3.20
2022-12-03T00:33:51.733Z,3.20
2022-12-03T00:34:23.630Z,3.32
2022-12-03T00:34:55.710Z,3.34
2022-12-03T00:35:27.715Z,3.36
2022-12-03T00:35:59.619Z,3.41
2022-12-03T00:36:31.581Z,3.33
2022-12-03T00:37:03.526Z,3.28
2022-12-03T00:37:35.417Z,3.25
2022-12-03T00:38:07.301Z,3.23
2022-12-03T00:38:39.561Z,3.29
2022-12-03T00:39:11.419Z,3.25
2022-12-03T00:39:43.306Z,3.26
2022-12-03T00:40:15.436Z,3.15
2022-12-03T00:40:47.302Z,3.15
2022-12-03T00:41:19.164Z,3.12
2022-12-03T00:41:51.057Z,3.06
2022-12-03T00:42:22.898Z,3.04
2022-12-03T00:42:54.736Z,3.13
2022-12-03T00:43:26.635Z,3.22
2022-12-03T00:43:58.791Z,3.27
2022-12-03T00:44:30.661Z,3.35
2022-12-03T00:45:02.601Z,3.37
2022-12-03T00:45:34.464Z,3.39
2022-12-03T00:46:06.561Z,3.40
2022-12-03T00:46:38.531Z,3.44
2022-12-03T00:47:11.384Z,3.47
2022-12-03T00:47:43.313Z,3.23
2022-12-03T00:48:15.188Z,3.15
2022-12-03T00:48:47.229Z,2.97
2022-12-03T00:49:19.383Z,3.05
2022-12-03T00:49:51.377Z,3.01
2022-12-03T00:50:23.260Z,2.95
2022-12-03T00:50:55.133Z,2.91
2022-12-03T00:51:27.004Z,3.06
2022-12-03T00:51:58.859Z,2.99
2022-12-03T00:52:30.686Z,3.15
2022-12-03T00:53:02.632Z,3.11
2022-12-03T00:53:35.745Z,3.03
2022-12-03T00:54:07.611Z,3.10
2022-12-03T00:54:39.755Z,3.18
2022-12-03T00:55:11.852Z,3.12
2022-12-03T00:55:43.717Z,3.12
2022-12-03T00:56:15.612Z,3.17
2022-12-03T00:56:47.459Z,3.24
2022-12-03T00:57:19.300Z,3.24
2022-12-03T00:57:51.197Z,3.18
2022-12-03T00:58:23.087Z,3.21
2022-12-03T00:58:54.895Z,3.17
2022-12-03T00:59:26.776Z,3.21
2022-12-03T00:59:58.944Z,3.23
2022-12-03T01:00:30.762Z,3.17
2022-12-03T01:01:02.874Z,3.18
2022-12-03T01:01:34.914Z,3.11
2022-12-03T01:02:07.081Z,3.09
2022-12-03T01:02:38.987Z,3.15
2022-12-03T01:03:10.842Z,3.19
2022-12-03T01:03:42.725Z,3.27
2022-12-03T01:04:14.592Z,3.23
2022-12-03T01:04:46.591Z,3.36
2022-12-03T01:05:19.618Z,3.29
2022-12-03T01:05:51.544Z,3.19
2022-12-03T01:06:23.487Z,3.07
2022-12-03T01:06:55.995Z,3.10
2022-12-03T01:07:28.042Z,3.15
2022-12-03T01:08:00.014Z,3.19
2022-12-03T01:08:31.934Z,3.08
2022-12-03T01:09:03.904Z,3.19
2022-12-03T01:09:35.820Z,3.16
2022-12-03T01:10:08.062Z,3.17
2022-12-03T01:10:40.277Z,3.18
2022-12-03T01:11:30.934Z,3.21
2022-12-03T01:12:02.821Z,3.26
2022-12-03T01:12:34.736Z,3.24
2022-12-03T01:13:06.633Z,3.14
2022-12-03T01:13:38.478Z,3.17
2022-12-03T01:14:15.499Z,3.20
2022-12-03T01:14:47.567Z,3.34
2022-12-03T01:15:19.715Z,3.43
2022-12-03T01:15:52.028Z,3.43
2022-12-03T01:16:24.093Z,3.43
2022-12-03T01:16:56.103Z,3.28
2022-12-03T01:17:28.032Z,3.19
2022-12-03T01:17:59.893Z,3.20
2022-12-03T01:18:31.742Z,3.31
2022-12-03T01:19:04.981Z,3.20
2022-12-03T01:19:36.981Z,3.15
2022-12-03T01:20:09.960Z,3.10
2022-12-03T01:20:41.846Z,2.97
2022-12-03T01:21:14.050Z,2.93
2022-12-03T01:21:48.912Z,2.89
2022-12-03T01:22:20.922Z,2.86
2022-12-03T01:22:52.838Z,2.92
2022-12-03T01:23:24.720Z,3.00
2022-12-03T01:23:57.073Z,3.04
2022-12-03T01:24:29.010Z,3.12
2022-12-03T01:25:00.928Z,3.19
2022-12-03T01:25:32.939Z,3.21
2022-12-03T01:26:04.907Z,3.10
2022-12-03T01:26:37.546Z,2.97
2022-12-03T01:27:09.383Z,2.95
2022-12-03T01:27:41.211Z,3.06
2022-12-03T01:28:13.099Z,3.03
2022-12-03T01:28:44.977Z,3.06
2022-12-03T01:29:16.817Z,2.97
2022-12-03T01:29:48.676Z,2.92
2022-12-03T01:30:20.599Z,2.78
2022-12-03T01:31:11.070Z,2.77
2022-12-03T01:32:02.026Z,2.74
2022-12-03T01:32:33.940Z,2.86
2022-12-03T01:33:05.782Z,2.96
2022-12-03T01:33:37.614Z,2.98
2022-12-03T01:34:09.466Z,3.02
2022-12-03T01:34:41.337Z,3.00
2022-12-03T01:35:13.191Z,2.96
2022-12-03T01:35:45.010Z,3.02
2022-12-03T01:36:16.890Z,2.99
2022-12-03T01:36:49.202Z,3.06
2022-12-03T01:37:23.965Z,3.07
2022-12-03T01:37:55.812Z,2.93
2022-12-03T01:38:27.653Z,2.97
2022-12-03T01:38:59.625Z,3.01
2022-12-03T01:39:31.508Z,3.04
2022-12-03T01:40:04.961Z,3.08
2022-12-03T01:40:36.874Z,3.14
2022-12-03T01:41:11.923Z,3.12
2022-12-03T01:41:44.662Z,3.06
2022-12-03T01:42:39.722Z,3.01
2022-12-03T01:43:11.575Z,2.98
2022-12-03T01:43:43.688Z,3.07
2022-12-03T01:44:23.121Z,2.94
2022-12-03T01:44:58.567Z,2.95
2022-12-03T01:45:30.984Z,2.92
2022-12-03T01:46:03.625Z,2.98
2022-12-03T01:46:40.163Z,3.13
2022-12-03T01:47:18.146Z,3.17
2022-12-03T01:47:50.810Z,3.10
2022-12-03T01:48:22.670Z,2.94
2022-12-03T01:48:56.067Z,2.92
2022-12-03T01:49:43.273Z,2.92
2022-12-03T01:50:20.869Z,2.96
2022-12-03T01:50:52.746Z,3.02
2022-12-03T01:51:24.702Z,3.15
2022-12-03T01:51:57.899Z,3.18
2022-12-03T01:52:34.509Z,3.20
2022-12-03T01:53:06.715Z,3.08
2022-12-03T01:53:38.601Z,3.00
2022-12-03T01:54:18.306Z,2.95
2022-12-03T01:54:59.241Z,2.94
2022-12-03T01:55:32.331Z,2.98
2022-12-03T01:56:04.360Z,3.03
2022-12-03T01:56:36.203Z,3.11
2022-12-03T01:57:20.133Z,3.18
2022-12-03T01:57:55.725Z,3.19
2022-12-03T01:58:29.638Z,3.24
2022-12-03T01:59:01.508Z,3.21
2022-12-03T01:59:36.337Z,3.08
2022-12-03T02:00:17.165Z,3.13
2022-12-03T02:00:49.356Z,3.07
2022-12-03T02:01:21.283Z,3.08
2022-12-03T02:01:53.230Z,3.17
2022-12-03T02:02:28.438Z,3.20
2022-12-03T02:03:11.453Z,3.22
2022-12-03T02:03:45.521Z,3.27
2022-12-03T02:04:22.552Z,3.24
2022-12-03T02:04:55.197Z,3.03
2022-12-03T02:05:30.243Z,3.01
2022-12-03T02:06:02.224Z,2.94
2022-12-03T02:06:34.521Z,3.01
2022-12-03T02:07:19.819Z,2.97
2022-12-03T02:07:52.568Z,3.09
2022-12-03T02:08:34.626Z,3.09
2022-12-03T02:09:08.699Z,3.03
2022-12-03T02:09:40.562Z,2.99
2022-12-03T02:10:15.871Z,3.03
2022-12-03T02:10:47.780Z,3.03
2022-12-03T02:11:25.588Z,3.12
2022-12-03T02:11:57.468Z,3.23
2022-12-03T02:12:36.379Z,3.17
2022-12-03T02:13:09.760Z,3.17
2022-12-03T02:13:42.930Z,3.11
2022-12-03T02:14:21.661Z,3.09
2022-12-03T02:14:54.486Z,3.17
2022-12-03T02:15:26.641Z,3.12
2022-12-03T02:15:58.787Z,3.19
2022-12-03T02:16:31.209Z,3.19
2022-12-03T02:17:03.120Z,3.10
2022-12-03T02:17:35.414Z,2.96
2022-12-03T02:18:08.954Z,3.02
2022-12-03T02:18:40.981Z,3.00
2022-12-03T02:19:27.529Z,3.08
2022-12-03T02:20:01.749Z,3.09
2022-12-03T02:20:41.228Z,3.15
2022-12-03T02:21:15.628Z,3.16
2022-12-03T02:22:09.381Z,3.28
2022-12-03T02:23:16.042Z,3.22
2022-12-03T02:24:33.359Z,3.21
2022-12-03T02:25:11.171Z,3.15
2022-12-03T02:25:43.036Z,3.19
2022-12-03T02:26:14.944Z,3.19
2022-12-03T02:26:46.811Z,3.19
2022-12-03T02:27:18.665Z,3.24
2022-12-03T02:27:51.404Z,3.23
2022-12-03T02:28:23.279Z,3.30
2022-12-03T02:28:55.338Z,3.36
2022-12-03T02:29:27.386Z,3.41
2022-12-03T02:29:59.288Z,3.39
2022-12-03T02:30:32.209Z,3.44
2022-12-03T02:31:05.388Z,3.42
2022-12-03T02:31:37.685Z,3.42
2022-12-03T02:32:09.563Z,3.42
2022-12-03T02:32:41.664Z,3.45
2022-12-03T02:33:14.095Z,3.27
2022-12-03T02:33:45.951Z,3.30
2022-12-03T02:34:38.235Z,3.33
2022-12-03T02:35:18.665Z,3.24
2022-12-03T02:35:50.811Z,3.15
2022-12-03T02:36:22.925Z,3.10
2022-12-03T02:36:54.756Z,3.09
2022-12-03T02:37:32.373Z,3.14
2022-12-03T02:38:21.498Z,3.14
2022-12-03T02:38:53.573Z,3.17
2022-12-03T02:39:25.724Z,3.20
2022-12-03T02:40:01.800Z,3.20
2022-12-03T02:40:34.353Z,3.21
2022-12-03T02:41:10.924Z,3.20
2022-12-03T02:42:01.384Z,3.12
2022-12-03T02:42:36.310Z,3.17
2022-12-03T02:43:08.193Z,3.04
2022-12-03T02:43:40.069Z,3.10
2022-12-03T02:44:12.594Z,3.16
2022-12-03T02:44:44.498Z,3.20
2022-12-03T02:45:24.077Z,3.23
2022-12-03T02:45:59.974Z,3.35
2022-12-03T02:46:32.919Z,3.34
2022-12-03T02:47:05.013Z,3.24
2022-12-03T02:47:43.364Z,3.28
2022-12-03T02:48:19.225Z,3.20
2022-12-03T02:48:51.196Z,3.22
2022-12-03T02:49:23.049Z,3.30
2022-12-03T02:49:55.905Z,3.31
2022-12-03T02:50:34.978Z,3.31
2022-12-03T02:51:10.370Z,3.34
2022-12-03T02:51:42.516Z,3.23
2022-12-03T02:52:15.956Z,3.24
2022-12-03T02:52:48.818Z,3.34
2022-12-03T02:53:26.510Z,3.29
2022-12-03T02:53:59.494Z,3.22
2022-12-03T02:54:31.534Z,3.29
2022-12-03T02:55:06.387Z,3.28
2022-12-03T02:55:39.134Z,3.21
2022-12-03T02:56:16.401Z,3.27
2022-12-03T02:56:48.839Z,3.32
2022-12-03T02:57:21.186Z,3.40
2022-12-03T02:57:53.235Z,3.43
2022-12-03T02:58:26.471Z,3.46
2022-12-03T02:59:01.858Z,3.36
2022-12-03T02:59:34.267Z,3.25
2022-12-03T03:00:08.440Z,3.06
2022-12-03T03:00:40.752Z,3.03
2022-12-03T03:01:13.170Z,3.11
2022-12-03T03:01:45.167Z,3.29
2022-12-03T03:02:17.789Z,3.23
2022-12-03T03:02:50.958Z,3.32
2022-12-03T03:03:27.061Z,3.37
2022-12-03T03:03:59.318Z,3.30
2022-12-03T03:04:31.271Z,3.30
2022-12-03T03:05:05.490Z,3.27
2022-12-03T03:05:39.815Z,3.34
2022-12-03T03:06:12.196Z,3.32
2022-12-03T03:06:44.305Z,3.30
2022-12-03T03:07:16.764Z,3.29
2022-12-03T03:07:51.043Z,3.21
2022-12-03T03:08:24.616Z,3.01
2022-12-03T03:08:57.260Z,2.99
2022-12-03T03:09:29.175Z,3.06
2022-12-03T03:10:02.175Z,3.12
2022-12-03T03:10:36.990Z,3.10
2022-12-03T03:11:08.865Z,3.15
2022-12-03T03:11:40.818Z,3.22
2022-12-03T03:12:12.680Z,3.22
2022-12-03T03:12:44.575Z,3.19
2022-12-03T03:13:19.033Z,3.29
2022-12-03T03:13:50.944Z,3.28
2022-12-03T03:14:22.810Z,3.23
2022-12-03T03:14:55.113Z,3.21
2022-12-03T03:15:27.157Z,3.29
2022-12-03T03:15:59.488Z,3.33
2022-12-03T03:16:33.850Z,3.33
2022-12-03T03:17:06.497Z,3.34
2022-12-03T03:17:38.742Z,3.29
2022-12-03T03:18:12.414Z,3.23
2022-12-03T03:18:44.709Z,3.21
2022-12-03T03:19:17.145Z,3.09
2022-12-03T03:19:49.066Z,3.15
2022-12-03T03:20:21.002Z,3.23
2022-12-03T03:20:53.695Z,3.04
2022-12-03T03:21:25.661Z,3.01
2022-12-03T03:21:57.572Z,3.14
2022-12-03T03:22:38.637Z,3.04
2022-12-03T03:23:17.815Z,2.92
2022-12-03T03:23:50.037Z,2.96
2022-12-03T03:24:22.825Z,3.00
2022-12-03T03:24:55.038Z,3.09
2022-12-03T03:25:27.143Z,3.14
2022-12-03T03:26:01.576Z,3.18
2022-12-03T03:26:33.517Z,3.23
2022-12-03T03:27:05.990Z,3.20
2022-12-03T03:27:39.006Z,3.09
2022-12-03T03:28:11.923Z,3.00
2022-12-03T03:28:48.573Z,2.92
2022-12-03T03:29:20.973Z,2.85
2022-12-03T03:29:52.921Z,2.93
2022-12-03T03:30:24.864Z,2.96
2022-12-03T03:30:58.916Z,2.97
2022-12-03T03:31:30.875Z,3.02
2022-12-03T03:32:04.395Z,2.76
2022-12-03T03:32:37.291Z,2.79
2022-12-03T03:33:10.076Z,2.73
2022-12-03T03:33:45.007Z,2.78
2022-12-03T03:34:17.594Z,2.91
2022-12-03T03:34:50.281Z,2.97
2022-12-03T03:35:24.544Z,2.90
2022-12-03T03:35:57.257Z,2.88
2022-12-03T03:36:29.155Z,2.92
2022-12-03T03:37:01.091Z,2.98
2022-12-03T03:37:33.060Z,3.02
2022-12-03T03:38:05.881Z,2.96
2022-12-03T03:38:38.459Z,3.05
2022-12-03T03:39:11.031Z,3.05
2022-12-03T03:39:43.022Z,2.93
2022-12-03T03:40:15.302Z,2.98
2022-12-03T03:40:49.431Z,2.88
2022-12-03T03:41:21.830Z,2.74
2022-12-03T03:41:53.774Z,2.81
2022-12-03T03:42:25.687Z,2.87
2022-12-03T03:42:58.234Z,2.91
2022-12-03T03:43:33.316Z,3.03
2022-12-03T03:44:07.618Z,3.02
2022-12-03T03:44:39.707Z,2.90
2022-12-03T03:45:11.625Z,2.88
2022-12-03T03:45:44.563Z,2.93
2022-12-03T03:46:18.277Z,2.92
2022-12-03T03:46:50.372Z,2.92
2022-12-03T03:47:23.845Z,2.93
2022-12-03T03:47:57.509Z,2.88
2022-12-03T03:48:29.713Z,2.79
2022-12-03T03:49:03.552Z,2.86
2022-12-03T03:49:35.737Z,2.90
2022-12-03T03:50:10.260Z,2.95
2022-12-03T03:50:44.546Z,3.02
2022-12-03T03:51:18.836Z,2.96
2022-12-03T03:51:50.974Z,2.87
2022-12-03T03:52:23.255Z,2.90
2022-12-03T03:52:56.749Z,2.80
2022-12-03T03:53:29.109Z,2.88
2022-12-03T03:54:03.772Z,2.87
2022-12-03T03:54:36.475Z,2.76
2022-12-03T03:55:10.417Z,2.76
2022-12-03T03:55:42.858Z,2.75
2022-12-03T03:56:17.525Z,2.73
2022-12-03T03:56:49.822Z,2.86
2022-12-03T03:57:21.780Z,2.84
2022-12-03T03:57:53.689Z,2.86
2022-12-03T03:58:25.588Z,3.00
2022-12-03T03:58:57.965Z,2.99
2022-12-03T03:59:29.955Z,3.00
2022-12-03T04:00:02.055Z,2.98
2022-12-03T04:00:37.913Z,2.98
2022-12-03T04:01:12.602Z,2.93
2022-12-03T04:01:46.080Z,2.95
2022-12-03T04:02:21.405Z,3.03
2022-12-03T04:02:54.408Z,3.06
2022-12-03T04:03:27.391Z,2.95
2022-12-03T04:04:02.404Z,2.81
2022-12-03T04:04:36.599Z,2.86
2022-12-03T04:05:15.265Z,2.92
2022-12-03T04:05:47.662Z,2.76
2022-12-03T04:06:19.965Z,2.74
2022-12-03T04:06:51.787Z,2.69
2022-12-03T04:07:23.630Z,2.73
2022-12-03T04:07:55.681Z,2.80
2022-12-03T04:08:27.571Z,2.87
2022-12-03T04:08:59.531Z,2.88
2022-12-03T04:09:31.351Z,2.92
2022-12-03T04:10:23.323Z,2.88
2022-12-03T04:11:13.637Z,2.76
2022-12-03T04:12:04.533Z,2.77
2022-12-03T04:13:05.724Z,2.74
2022-12-03T04:13:37.628Z,2.76
2022-12-03T04:14:09.524Z,2.79
2022-12-03T04:14:41.356Z,2.86
2022-12-03T04:15:13.194Z,2.89
2022-12-03T04:15:45.058Z,2.91
2022-12-03T04:16:16.919Z,2.78
2022-12-03T04:16:49.229Z,2.81
2022-12-03T04:17:21.299Z,2.84
2022-12-03T04:18:12.054Z,2.83
2022-12-03T04:18:44.904Z,2.84
2022-12-03T04:19:16.757Z,2.85
2022-12-03T04:19:48.684Z,2.89
2022-12-03T04:20:20.516Z,2.94
2022-12-03T04:21:12.332Z,2.97
2022-12-03T04:22:11.117Z,3.01
2022-12-03T04:22:43.342Z,2.93
2022-12-03T04:23:15.323Z,2.80
2022-12-03T04:23:47.226Z,2.84
2022-12-03T04:24:19.060Z,2.72
2022-12-03T04:24:51.303Z,2.73
2022-12-03T04:25:41.856Z,2.71
2022-12-03T04:26:32.279Z,2.76
2022-12-03T04:27:22.584Z,2.86
2022-12-03T04:28:13.160Z,2.71
2022-12-03T04:28:50.922Z,2.65
2022-12-03T04:29:23.183Z,2.80
2022-12-03T04:29:55.052Z,2.88
2022-12-03T04:30:27.295Z,2.90
2022-12-03T04:30:59.689Z,2.88
2022-12-03T04:31:54.533Z,2.92
2022-12-03T04:32:45.272Z,2.96
2022-12-03T04:33:36.258Z,3.05
2022-12-03T04:34:28.249Z,3.02
2022-12-03T04:35:18.863Z,3.10
2022-12-03T04:35:50.982Z,3.22
2022-12-03T04:36:22.839Z,3.22
2022-12-03T04:36:54.759Z,3.25
2022-12-03T04:37:26.604Z,3.13
2022-12-03T04:37:58.500Z,3.04
2022-12-03T04:38:30.753Z,3.06
2022-12-03T04:39:03.034Z,2.90
2022-12-03T04:39:35.518Z,2.88
2022-12-03T04:40:27.883Z,2.86
2022-12-03T04:41:04.406Z,2.81
2022-12-03T04:41:36.312Z,2.91
2022-12-03T04:42:08.364Z,2.81
2022-12-03T04:42:40.207Z,2.84
2022-12-03T04:43:13.082Z,2.88
2022-12-03T04:44:17.871Z,2.89
2022-12-03T04:44:50.383Z,2.95
2022-12-03T04:45:22.486Z,2.72
2022-12-03T04:45:54.440Z,2.78
2022-12-03T04:46:26.411Z,2.79
2022-12-03T04:46:58.362Z,2.85
2022-12-03T04:47:31.526Z,2.94
2022-12-03T04:48:04.321Z,3.02
2022-12-03T04:48:36.219Z,2.95
2022-12-03T04:49:08.575Z,2.96
2022-12-03T04:49:46.041Z,2.92
2022-12-03T04:50:17.934Z,3.04
2022-12-03T04:50:49.833Z,3.00
2022-12-03T04:51:21.702Z,2.94
2022-12-03T04:51:53.713Z,2.94
2022-12-03T04:52:26.512Z,3.00
2022-12-03T04:52:58.425Z,3.03
2022-12-03T04:53:30.277Z,3.10
2022-12-03T04:54:02.291Z,3.11
2022-12-03T04:54:34.878Z,3.09
2022-12-03T04:55:06.955Z,2.81
2022-12-03T04:55:38.781Z,2.72
2022-12-03T04:56:10.648Z,2.72
2022-12-03T04:56:42.580Z,2.56
2022-12-03T04:57:15.833Z,2.70
2022-12-03T04:57:47.658Z,2.74
2022-12-03T04:58:19.505Z,2.76
2022-12-03T04:58:51.445Z,2.84
2022-12-03T04:59:23.402Z,2.85
2022-12-03T04:59:55.590Z,2.95
2022-12-03T05:00:29.052Z,3.04
2022-12-03T05:01:00.993Z,3.14
2022-12-03T05:01:32.925Z,2.73
2022-12-03T05:02:06.337Z,2.76
2022-12-03T05:02:38.253Z,2.81
2022-12-03T05:03:10.169Z,2.74
2022-12-03T05:03:42.035Z,2.63
2022-12-03T05:04:14.660Z,2.65
2022-12-03T05:04:46.568Z,2.72
2022-12-03T05:05:18.726Z,2.65
2022-12-03T05:05:50.549Z,2.74
2022-12-03T05:06:22.681Z,2.78
2022-12-03T05:06:54.633Z,2.66
2022-12-03T05:07:26.578Z,2.75
2022-12-03T05:07:58.505Z,2.80
2022-12-03T05:08:30.382Z,2.90
2022-12-03T05:09:02.445Z,2.94
2022-12-03T05:09:34.464Z,2.94
2022-12-03T05:10:07.096Z,2.84
2022-12-03T05:10:39.344Z,2.75
2022-12-03T05:11:11.194Z,2.77
2022-12-03T05:11:43.580Z,2.88
2022-12-03T05:12:15.421Z,2.84
2022-12-03T05:12:47.314Z,2.83
2022-12-03T05:13:19.203Z,2.91
2022-12-03T05:13:52.477Z,2.97
2022-12-03T05:14:24.303Z,3.04
2022-12-03T05:14:56.449Z,3.07
2022-12-03T05:15:28.482Z,3.10
2022-12-03T05:16:00.745Z,3.00
2022-12-03T05:16:32.735Z,2.87
2022-12-03T05:17:04.794Z,2.88
2022-12-03T05:17:36.818Z,2.84
2022-12-03T05:18:09.977Z,2.94
2022-12-03T05:18:41.849Z,2.93
2022-12-03T05:19:13.687Z,2.98
2022-12-03T05:20:04.365Z,2.93
2022-12-03T05:20:42.121Z,2.89
2022-12-03T05:21:14.255Z,2.81
2022-12-03T05:21:46.164Z,2.81
2022-12-03T05:22:18.411Z,2.76
2022-12-03T05:22:50.276Z,2.76
2022-12-03T05:23:22.308Z,2.72
2022-12-03T05:23:54.337Z,2.71
2022-12-03T05:24:26.183Z,2.67
2022-12-03T05:24:58.039Z,2.73
2022-12-03T05:25:29.954Z,2.79
2022-12-03T05:26:01.852Z,2.86
2022-12-03T05:26:34.149Z,2.93
2022-12-03T05:27:06.270Z,3.02
2022-12-03T05:27:38.145Z,2.96
2022-12-03T05:28:10.081Z,2.99
2022-12-03T05:28:41.929Z,3.01
2022-12-03T05:29:13.764Z,3.07
2022-12-03T05:29:45.606Z,3.15
2022-12-03T05:30:17.578Z,3.16
2022-12-03T05:30:49.659Z,3.20
2022-12-03T05:31:21.639Z,3.04
2022-12-03T05:31:53.842Z,3.03
2022-12-03T05:32:25.705Z,3.02
2022-12-03T05:32:57.683Z,3.05
2022-12-03T05:33:29.612Z,3.04
2022-12-03T05:34:01.434Z,3.05
2022-12-03T05:34:33.303Z,3.07
2022-12-03T05:35:05.549Z,3.12
2022-12-03T05:35:37.432Z,3.16
2022-12-03T05:36:09.523Z,3.12
2022-12-03T05:36:41.461Z,3.12
2022-12-03T05:37:13.667Z,3.18
2022-12-03T05:37:45.635Z,3.13
2022-12-03T05:38:17.540Z,3.15
2022-12-03T05:38:49.480Z,3.20
2022-12-03T05:39:21.388Z,3.29
2022-12-03T05:39:53.246Z,3.34
2022-12-03T05:40:25.299Z,3.35
2022-12-03T05:40:57.127Z,3.29
2022-12-03T05:41:47.961Z,3.28
2022-12-03T05:42:38.905Z,3.33
2022-12-03T05:43:10.795Z,3.21
2022-12-03T05:43:42.684Z,3.08
2022-12-03T05:44:20.117Z,3.07
2022-12-03T05:44:52.778Z,3.04
2022-12-03T05:45:28.103Z,3.04
2022-12-03T05:46:00.012Z,2.99
2022-12-03T05:46:35.000Z,3.02
2022-12-03T05:47:06.946Z,3.06
2022-12-03T05:47:41.746Z,3.01
2022-12-03T05:48:15.624Z,2.99
2022-12-03T05:48:47.476Z,3.04
2022-12-03T05:49:19.334Z,3.07
2022-12-03T05:49:51.178Z,3.04
2022-12-03T05:50:26.020Z,2.95
2022-12-03T05:51:00.119Z,3.03
2022-12-03T05:51:31.921Z,3.04
2022-12-03T05:52:04.017Z,3.04
2022-12-03T05:52:35.872Z,3.00
2022-12-03T05:53:08.078Z,3.10
2022-12-03T05:53:40.020Z,3.08
2022-12-03T05:54:11.957Z,3.03
2022-12-03T05:54:43.846Z,3.02
2022-12-03T05:55:16.615Z,3.09
2022-12-03T05:55:48.444Z,3.08
2022-12-03T05:56:20.280Z,2.99
2022-12-03T05:56:52.161Z,3.05
2022-12-03T05:57:24.106Z,2.99
2022-12-03T05:57:56.016Z,2.96
2022-12-03T05:58:28.574Z,2.99
2022-12-03T05:59:01.699Z,2.96
2022-12-03T05:59:33.524Z,2.91
2022-12-03T06:00:11.282Z,2.97
2022-12-03T06:00:44.454Z,2.99
2022-12-03T06:01:16.901Z,2.94
2022-12-03T06:01:48.926Z,3.01
2022-12-03T06:02:22.273Z,3.09
2022-12-03T06:02:55.084Z,3.13
2022-12-03T06:03:27.238Z,3.19
2022-12-03T06:04:00.277Z,2.99
2022-12-03T06:04:32.254Z,2.97
2022-12-03T06:05:04.386Z,2.96
2022-12-03T06:05:36.291Z,2.97
2022-12-03T06:06:08.191Z,3.09
2022-12-03T06:06:40.364Z,3.12
2022-12-03T06:07:14.076Z,3.08
2022-12-03T06:07:47.160Z,3.09
2022-12-03T06:08:19.075Z,3.11
2022-12-03T06:08:50.977Z,2.94
2022-12-03T06:09:22.811Z,3.09
2022-12-03T06:09:54.729Z,3.18
2022-12-03T06:10:27.310Z,3.13
2022-12-03T06:10:59.567Z,3.19
2022-12-03T06:11:34.101Z,3.16
2022-12-03T06:12:07.027Z,3.20
2022-12-03T06:12:38.928Z,3.17
2022-12-03T06:13:11.690Z,3.17
2022-12-03T06:13:43.560Z,3.18
2022-12-03T06:14:15.596Z,3.13
2022-12-03T06:14:47.463Z,3.01
2022-12-03T06:15:20.313Z,2.99
2022-12-03T06:15:52.199Z,3.06
2022-12-03T06:16:24.213Z,3.18
2022-12-03T06:16:56.172Z,3.23
2022-12-03T06:17:28.515Z,3.21
2022-12-03T06:18:00.454Z,3.20
2022-12-03T06:18:32.325Z,3.23
2022-12-03T06:19:04.192Z,3.05
2022-12-03T06:19:36.048Z,3.07
2022-12-03T06:20:09.081Z,3.13
2022-12-03T06:20:41.068Z,3.14
2022-12-03T06:21:13.137Z,3.16
2022-12-03T06:21:46.711Z,3.14
2022-12-03T06:22:19.191Z,3.10
2022-12-03T06:22:51.318Z,3.05
2022-12-03T06:23:23.259Z,3.00
2022-12-03T06:23:55.123Z,3.04
2022-12-03T06:24:26.984Z,3.08
2022-12-03T06:25:04.900Z,2.97
2022-12-03T06:25:38.650Z,2.99
2022-12-03T06:26:11.719Z,3.03
2022-12-03T06:26:43.590Z,3.09
2022-12-03T06:27:15.500Z,2.99
2022-12-03T06:27:47.325Z,2.94
2022-12-03T06:28:19.468Z,2.91
2022-12-03T06:28:51.336Z,2.98
2022-12-03T06:29:23.174Z,3.07
2022-12-03T06:29:55.023Z,3.17
2022-12-03T06:30:26.987Z,3.20
2022-12-03T06:30:58.952Z,3.23
2022-12-03T06:31:30.921Z,3.21
2022-12-03T06:32:03.887Z,3.17
2022-12-03T06:32:35.900Z,3.20
2022-12-03T06:33:07.753Z,3.29
2022-12-03T06:33:39.953Z,3.37
2022-12-03T06:34:11.777Z,3.29
2022-12-03T06:34:45.713Z,3.22
2022-12-03T06:35:17.630Z,3.22
2022-12-03T06:35:49.451Z,3.21
2022-12-03T06:36:23.285Z,3.22
2022-12-03T06:36:55.401Z,3.15
2022-12-03T06:37:27.786Z,2.95
2022-12-03T06:37:59.707Z,2.99
2022-12-03T06:38:31.595Z,3.03
2022-12-03T06:39:03.827Z,3.09
2022-12-03T06:39:36.402Z,3.14
2022-12-03T06:40:08.751Z,3.11
2022-12-03T06:40:40.595Z,3.20
2022-12-03T06:41:12.608Z,3.08
2022-12-03T06:41:44.510Z,3.00
2022-12-03T06:42:16.397Z,3.02
2022-12-03T06:42:48.211Z,3.14
2022-12-03T06:43:20.050Z,3.25
2022-12-03T06:43:51.913Z,3.21
2022-12-03T06:44:24.078Z,3.24
2022-12-03T06:44:56.151Z,3.25
2022-12-03T06:45:28.159Z,3.34
2022-12-03T06:46:00.073Z,3.39
2022-12-03T06:46:32.105Z,3.19
2022-12-03T06:47:04.138Z,3.18
2022-12-03T06:47:36.066Z,3.18
2022-12-03T06:48:08.363Z,3.21
2022-12-03T06:48:40.173Z,3.21
2022-12-03T06:49:12.006Z,3.14
2022-12-03T06:49:44.221Z,3.11
2022-12-03T06:50:16.313Z,3.14
2022-12-03T06:50:48.235Z,3.20
2022-12-03T06:51:20.074Z,3.16
2022-12-03T06:51:51.889Z,3.18
2022-12-03T06:52:24.095Z,3.19
2022-12-03T06:52:57.243Z,3.29
2022-12-03T06:53:31.016Z,3.35
2022-12-03T06:54:03.920Z,3.39
2022-12-03T06:54:35.790Z,3.38
2022-12-03T06:55:08.415Z,3.36
2022-12-03T06:55:40.254Z,3.33
2022-12-03T06:56:12.192Z,3.29
2022-12-03T06:56:45.583Z,3.23
2022-12-03T06:57:17.668Z,3.22
2022-12-03T06:57:49.864Z,3.19
2022-12-03T06:58:21.764Z,3.17
2022-12-03T06:58:53.909Z,3.16
2022-12-03T06:59:26.340Z,3.15
2022-12-03T06:59:58.437Z,3.24
2022-12-03T07:00:30.828Z,3.19
2022-12-03T07:01:02.726Z,3.23
2022-12-03T07:01:34.646Z,3.24
2022-12-03T07:02:06.895Z,3.15
2022-12-03T07:02:39.056Z,3.12
2022-12-03T07:03:11.190Z,3.29
2022-12-03T07:03:43.119Z,3.31
2022-12-03T07:04:15.164Z,3.31
2022-12-03T07:04:47.117Z,3.28
2022-12-03T07:05:19.792Z,3.23
2022-12-03T07:05:52.178Z,3.24
2022-12-03T07:06:24.068Z,3.18
2022-12-03T07:06:56.359Z,3.17
2022-12-03T07:07:28.375Z,3.14
2022-12-03T07:08:00.826Z,3.19
2022-12-03T07:08:33.208Z,3.16
2022-12-03T07:09:05.133Z,3.10
2022-12-03T07:09:37.020Z,3.16
2022-12-03T07:10:09.365Z,3.17
2022-12-03T07:10:41.551Z,3.25
2022-12-03T07:11:32.271Z,3.29
2022-12-03T07:12:04.196Z,3.30
2022-12-03T07:12:36.219Z,3.35
2022-12-03T07:13:08.283Z,3.34
2022-12-03T07:13:40.162Z,3.29
2022-12-03T07:14:12.200Z,3.29
2022-12-03T07:14:44.122Z,3.22
2022-12-03T07:15:16.208Z,3.23
2022-12-03T07:15:48.177Z,3.31
2022-12-03T07:16:20.409Z,3.35
2022-12-03T07:16:53.016Z,3.40
2022-12-03T07:17:24.936Z,3.34
2022-12-03T07:17:56.819Z,3.37
2022-12-03T07:18:28.670Z,3.19
2022-12-03T07:19:00.783Z,3.16
2022-12-03T07:19:33.326Z,3.21
2022-12-03T07:20:06.408Z,3.24
2022-12-03T07:20:38.420Z,3.19
2022-12-03T07:21:10.454Z,3.25
2022-12-03T07:21:42.902Z,3.19
2022-12-03T07:22:14.857Z,3.29
2022-12-03T07:22:46.765Z,3.23
2022-12-03T07:23:18.629Z,3.27
2022-12-03T07:23:50.499Z,3.25
2022-12-03T07:24:22.815Z,3.23
2022-12-03T07:24:55.089Z,3.21
2022-12-03T07:25:27.252Z,3.16
2022-12-03T07:25:59.114Z,3.21
2022-12-03T07:26:31.014Z,3.19
2022-12-03T07:27:03.234Z,3.21